sensor_id;sensor_type;location;lat;lon;timestamp;temperature;humidity
18805;DHT22;9530;48.930;9.526;2023-04-12T00:00:08;8.90;99.90
18805;DHT22;9530;48.930;9.526;2023-04-12T00:02:36;8.90;99.90
18805;DHT22;9530;48.930;9.526;2023-04-12T00:05:03;8.90;99.90
18805;DHT22;9530;48.930;9.526;2023-04-12T00:07:31;8.80;99.90
18805;DHT22;9530;48.930;9.526;2023-04-12T00:09:58;8.70;99.90
18805;DHT22;9530;48.930;9.526;2023-04-12T00:12:25;8.80;99.90
18805;DHT22;9530;48.930;9.526;2023-04-12T00:14:51;8.80;99.90
18805;DHT22;9530;48.930;9.526;2023-04-12T00:17:18;8.80;99.90
18805;DHT22;9530;48.930;9.526;2023-04-12T00:19:46;8.80;99.90
18805;DHT22;9530;48.930;9.526;2023-04-12T00:22:14;8.90;99.90
18805;DHT22;9530;48.930;9.526;2023-04-12T00:24:42;8.90;99.90
18805;DHT22;9530;48.930;9.526;2023-04-12T00:27:09;8.90;99.90
18805;DHT22;9530;48.930;9.526;2023-04-12T00:29:36;9.00;99.90
18805;DHT22;9530;48.930;9.526;2023-04-12T00:32:02;9.00;99.90
18805;DHT22;9530;48.930;9.526;2023-04-12T00:34:30;9.00;99.90
18805;DHT22;9530;48.930;9.526;2023-04-12T00:36:57;9.00;99.90
18805;DHT22;9530;48.930;9.526;2023-04-12T00:39:23;9.00;99.90
18805;DHT22;9530;48.930;9.526;2023-04-12T00:41:51;9.00;99.90
18805;DHT22;9530;48.930;9.526;2023-04-12T00:44:18;9.00;99.90
18805;DHT22;9530;48.930;9.526;2023-04-12T00:46:45;9.10;99.90
18805;DHT22;9530;48.930;9.526;2023-04-12T00:49:12;9.10;99.90
18805;DHT22;9530;48.930;9.526;2023-04-12T00:51:39;9.10;99.90
18805;DHT22;9530;48.930;9.526;2023-04-12T00:54:06;9.10;99.90
18805;DHT22;9530;48.930;9.526;2023-04-12T00:56:34;9.00;99.90
18805;DHT22;9530;48.930;9.526;2023-04-12T00:59:02;9.00;99.90
18805;DHT22;9530;48.930;9.526;2023-04-12T01:01:29;9.00;99.90
18805;DHT22;9530;48.930;9.526;2023-04-12T01:03:57;9.00;99.90
18805;DHT22;9530;48.930;9.526;2023-04-12T01:06:34;8.90;99.90
18805;DHT22;9530;48.930;9.526;2023-04-12T01:09:12;8.90;99.90
18805;DHT22;9530;48.930;9.526;2023-04-12T01:11:44;8.90;99.90
18805;DHT22;9530;48.930;9.526;2023-04-12T01:14:18;8.90;99.90
18805;DHT22;9530;48.930;9.526;2023-04-12T01:16:49;8.80;99.90
18805;DHT22;9530;48.930;9.526;2023-04-12T01:19:32;8.80;99.90
18805;DHT22;9530;48.930;9.526;2023-04-12T01:22:09;8.70;99.90
18805;DHT22;9530;48.930;9.526;2023-04-12T01:24:45;8.70;99.90
18805;DHT22;9530;48.930;9.526;2023-04-12T01:27:26;8.70;99.90
18805;DHT22;9530;48.930;9.526;2023-04-12T01:29:55;8.60;99.90
18805;DHT22;9530;48.930;9.526;2023-04-12T01:32:23;8.60;99.90
18805;DHT22;9530;48.930;9.526;2023-04-12T01:34:50;8.60;99.90
18805;DHT22;9530;48.930;9.526;2023-04-12T01:37:17;8.50;99.90
18805;DHT22;9530;48.930;9.526;2023-04-12T01:39:45;8.40;99.90
18805;DHT22;9530;48.930;9.526;2023-04-12T01:42:19;8.30;99.90
18805;DHT22;9530;48.930;9.526;2023-04-12T01:44:46;8.20;99.90
18805;DHT22;9530;48.930;9.526;2023-04-12T01:47:12;8.20;99.90
18805;DHT22;9530;48.930;9.526;2023-04-12T01:49:48;8.20;99.90
18805;DHT22;9530;48.930;9.526;2023-04-12T01:52:18;8.10;99.90
18805;DHT22;9530;48.930;9.526;2023-04-12T01:54:48;8.00;99.90
18805;DHT22;9530;48.930;9.526;2023-04-12T01:57:18;8.00;99.90
18805;DHT22;9530;48.930;9.526;2023-04-12T01:59:46;8.00;99.90
18805;DHT22;9530;48.930;9.526;2023-04-12T02:02:14;7.90;99.90
18805;DHT22;9530;48.930;9.526;2023-04-12T02:04:42;7.90;99.90
18805;DHT22;9530;48.930;9.526;2023-04-12T02:07:08;7.90;99.90
18805;DHT22;9530;48.930;9.526;2023-04-12T02:09:36;7.90;99.90
18805;DHT22;9530;48.930;9.526;2023-04-12T02:12:04;7.90;99.90
18805;DHT22;9530;48.930;9.526;2023-04-12T02:14:33;7.80;99.90
18805;DHT22;9530;48.930;9.526;2023-04-12T02:17:00;7.70;99.90
18805;DHT22;9530;48.930;9.526;2023-04-12T02:19:29;7.70;99.90
18805;DHT22;9530;48.930;9.526;2023-04-12T02:21:56;7.70;99.90
18805;DHT22;9530;48.930;9.526;2023-04-12T02:24:23;7.60;99.90
18805;DHT22;9530;48.930;9.526;2023-04-12T02:26:49;7.70;99.90
18805;DHT22;9530;48.930;9.526;2023-04-12T02:29:16;7.70;99.90
18805;DHT22;9530;48.930;9.526;2023-04-12T02:31:44;7.60;99.90
18805;DHT22;9530;48.930;9.526;2023-04-12T02:34:11;7.60;99.90
18805;DHT22;9530;48.930;9.526;2023-04-12T02:36:40;7.50;99.90
18805;DHT22;9530;48.930;9.526;2023-04-12T02:39:07;7.50;99.90
18805;DHT22;9530;48.930;9.526;2023-04-12T02:41:33;7.40;99.90
18805;DHT22;9530;48.930;9.526;2023-04-12T02:44:00;7.40;99.90
18805;DHT22;9530;48.930;9.526;2023-04-12T02:46:28;7.40;99.90
18805;DHT22;9530;48.930;9.526;2023-04-12T02:48:56;7.30;99.90
18805;DHT22;9530;48.930;9.526;2023-04-12T02:51:22;7.40;99.90
18805;DHT22;9530;48.930;9.526;2023-04-12T02:53:49;7.40;99.90
18805;DHT22;9530;48.930;9.526;2023-04-12T02:56:16;7.40;99.90
18805;DHT22;9530;48.930;9.526;2023-04-12T02:58:44;7.40;99.90
18805;DHT22;9530;48.930;9.526;2023-04-12T03:01:10;7.40;99.90
18805;DHT22;9530;48.930;9.526;2023-04-12T03:03:38;7.40;99.90
18805;DHT22;9530;48.930;9.526;2023-04-12T03:06:07;7.50;99.90
18805;DHT22;9530;48.930;9.526;2023-04-12T03:08:34;7.50;99.90
18805;DHT22;9530;48.930;9.526;2023-04-12T03:11:02;7.50;99.90
18805;DHT22;9530;48.930;9.526;2023-04-12T03:13:29;7.50;99.90
18805;DHT22;9530;48.930;9.526;2023-04-12T03:15:57;7.50;99.90
18805;DHT22;9530;48.930;9.526;2023-04-12T03:18:24;7.50;99.90
18805;DHT22;9530;48.930;9.526;2023-04-12T03:20:51;7.60;99.90
18805;DHT22;9530;48.930;9.526;2023-04-12T03:23:19;7.50;99.90
18805;DHT22;9530;48.930;9.526;2023-04-12T03:25:46;7.60;99.90
18805;DHT22;9530;48.930;9.526;2023-04-12T03:28:13;7.60;99.90
18805;DHT22;9530;48.930;9.526;2023-04-12T03:30:39;7.60;99.90
18805;DHT22;9530;48.930;9.526;2023-04-12T03:33:06;7.50;99.90
18805;DHT22;9530;48.930;9.526;2023-04-12T03:35:33;7.60;99.90
18805;DHT22;9530;48.930;9.526;2023-04-12T03:38:00;7.50;99.90
18805;DHT22;9530;48.930;9.526;2023-04-12T03:40:28;7.50;99.90
18805;DHT22;9530;48.930;9.526;2023-04-12T03:42:54;7.50;99.90
18805;DHT22;9530;48.930;9.526;2023-04-12T03:45:21;7.50;99.90
18805;DHT22;9530;48.930;9.526;2023-04-12T03:47:48;7.50;99.90
18805;DHT22;9530;48.930;9.526;2023-04-12T03:50:15;7.40;99.90
18805;DHT22;9530;48.930;9.526;2023-04-12T03:52:41;7.40;99.90
18805;DHT22;9530;48.930;9.526;2023-04-12T03:55:08;7.40;99.90
18805;DHT22;9530;48.930;9.526;2023-04-12T03:57:39;7.40;99.90
18805;DHT22;9530;48.930;9.526;2023-04-12T04:00:07;7.40;99.90
18805;DHT22;9530;48.930;9.526;2023-04-12T04:02:34;7.40;99.90
18805;DHT22;9530;48.930;9.526;2023-04-12T04:05:01;7.40;99.90
18805;DHT22;9530;48.930;9.526;2023-04-12T04:07:28;7.40;99.90
18805;DHT22;9530;48.930;9.526;2023-04-12T04:09:56;7.30;99.90
18805;DHT22;9530;48.930;9.526;2023-04-12T04:12:23;7.30;99.90
18805;DHT22;9530;48.930;9.526;2023-04-12T04:14:51;7.30;99.90
18805;DHT22;9530;48.930;9.526;2023-04-12T04:17:17;7.30;99.90
18805;DHT22;9530;48.930;9.526;2023-04-12T04:19:44;7.40;99.90
18805;DHT22;9530;48.930;9.526;2023-04-12T04:22:11;7.30;99.90
18805;DHT22;9530;48.930;9.526;2023-04-12T04:24:38;7.40;99.90
18805;DHT22;9530;48.930;9.526;2023-04-12T04:27:04;7.50;99.90
18805;DHT22;9530;48.930;9.526;2023-04-12T04:29:31;7.50;99.90
18805;DHT22;9530;48.930;9.526;2023-04-12T04:31:59;7.50;99.90
18805;DHT22;9530;48.930;9.526;2023-04-12T04:34:26;7.50;99.90
18805;DHT22;9530;48.930;9.526;2023-04-12T04:36:53;7.50;99.90
18805;DHT22;9530;48.930;9.526;2023-04-12T04:39:19;7.60;99.90
18805;DHT22;9530;48.930;9.526;2023-04-12T04:41:46;7.60;99.90
18805;DHT22;9530;48.930;9.526;2023-04-12T04:44:19;7.60;99.90
18805;DHT22;9530;48.930;9.526;2023-04-12T04:46:46;7.60;99.90
18805;DHT22;9530;48.930;9.526;2023-04-12T04:49:14;7.50;99.90
18805;DHT22;9530;48.930;9.526;2023-04-12T04:51:41;7.60;99.90
18805;DHT22;9530;48.930;9.526;2023-04-12T04:54:08;7.60;99.90
18805;DHT22;9530;48.930;9.526;2023-04-12T04:56:35;7.60;99.90
18805;DHT22;9530;48.930;9.526;2023-04-12T04:59:01;7.60;99.90
18805;DHT22;9530;48.930;9.526;2023-04-12T05:01:28;7.60;99.90
18805;DHT22;9530;48.930;9.526;2023-04-12T05:03:56;7.70;99.90
18805;DHT22;9530;48.930;9.526;2023-04-12T05:06:24;7.70;99.90
18805;DHT22;9530;48.930;9.526;2023-04-12T05:08:51;7.70;99.90
18805;DHT22;9530;48.930;9.526;2023-04-12T05:11:18;7.70;99.90
18805;DHT22;9530;48.930;9.526;2023-04-12T05:13:45;7.70;99.90
18805;DHT22;9530;48.930;9.526;2023-04-12T05:16:11;7.80;99.90
18805;DHT22;9530;48.930;9.526;2023-04-12T05:18:38;7.70;99.90
18805;DHT22;9530;48.930;9.526;2023-04-12T05:21:05;7.80;99.90
18805;DHT22;9530;48.930;9.526;2023-04-12T05:23:35;7.80;99.90
18805;DHT22;9530;48.930;9.526;2023-04-12T05:26:03;7.70;99.90
18805;DHT22;9530;48.930;9.526;2023-04-12T05:28:29;7.80;99.90
18805;DHT22;9530;48.930;9.526;2023-04-12T05:30:56;7.80;99.90
18805;DHT22;9530;48.930;9.526;2023-04-12T05:33:23;7.70;99.90
18805;DHT22;9530;48.930;9.526;2023-04-12T05:35:49;7.70;99.90
18805;DHT22;9530;48.930;9.526;2023-04-12T05:38:16;7.70;99.90
18805;DHT22;9530;48.930;9.526;2023-04-12T05:40:44;7.70;99.90
18805;DHT22;9530;48.930;9.526;2023-04-12T05:43:11;7.70;99.90
18805;DHT22;9530;48.930;9.526;2023-04-12T05:45:38;7.70;99.90
18805;DHT22;9530;48.930;9.526;2023-04-12T05:48:05;7.70;99.90
18805;DHT22;9530;48.930;9.526;2023-04-12T05:50:31;7.70;99.90
18805;DHT22;9530;48.930;9.526;2023-04-12T05:52:59;7.70;99.90
18805;DHT22;9530;48.930;9.526;2023-04-12T05:55:26;7.80;99.90
18805;DHT22;9530;48.930;9.526;2023-04-12T05:57:55;7.80;99.90
18805;DHT22;9530;48.930;9.526;2023-04-12T06:00:22;7.80;99.90
18805;DHT22;9530;48.930;9.526;2023-04-12T06:02:48;7.80;99.90
18805;DHT22;9530;48.930;9.526;2023-04-12T06:05:16;7.80;99.90
18805;DHT22;9530;48.930;9.526;2023-04-12T06:07:43;7.90;99.90
18805;DHT22;9530;48.930;9.526;2023-04-12T06:10:13;7.90;99.90
18805;DHT22;9530;48.930;9.526;2023-04-12T06:12:40;7.90;99.90
18805;DHT22;9530;48.930;9.526;2023-04-12T06:15:09;7.90;99.90
18805;DHT22;9530;48.930;9.526;2023-04-12T06:17:36;7.90;99.90
18805;DHT22;9530;48.930;9.526;2023-04-12T06:20:02;8.00;99.90
18805;DHT22;9530;48.930;9.526;2023-04-12T06:22:32;8.00;99.90
18805;DHT22;9530;48.930;9.526;2023-04-12T06:24:59;8.00;99.90
18805;DHT22;9530;48.930;9.526;2023-04-12T06:27:25;8.00;99.90
18805;DHT22;9530;48.930;9.526;2023-04-12T06:29:52;8.00;99.90
18805;DHT22;9530;48.930;9.526;2023-04-12T06:32:20;8.10;99.90
18805;DHT22;9530;48.930;9.526;2023-04-12T06:34:47;8.10;99.90
18805;DHT22;9530;48.930;9.526;2023-04-12T06:37:14;8.10;99.90
18805;DHT22;9530;48.930;9.526;2023-04-12T06:39:41;8.10;99.90
18805;DHT22;9530;48.930;9.526;2023-04-12T06:42:07;8.20;99.90
18805;DHT22;9530;48.930;9.526;2023-04-12T06:47:10;8.20;99.90
18805;DHT22;9530;48.930;9.526;2023-04-12T06:49:38;8.20;99.90
18805;DHT22;9530;48.930;9.526;2023-04-12T06:52:05;8.30;99.90
18805;DHT22;9530;48.930;9.526;2023-04-12T06:54:32;8.30;99.90
18805;DHT22;9530;48.930;9.526;2023-04-12T06:56:58;8.30;99.90
18805;DHT22;9530;48.930;9.526;2023-04-12T06:59:26;8.30;99.90
18805;DHT22;9530;48.930;9.526;2023-04-12T07:01:52;8.30;99.90
18805;DHT22;9530;48.930;9.526;2023-04-12T07:04:19;8.40;99.90
18805;DHT22;9530;48.930;9.526;2023-04-12T07:06:47;8.40;99.90
18805;DHT22;9530;48.930;9.526;2023-04-12T07:09:14;8.50;99.90
18805;DHT22;9530;48.930;9.526;2023-04-12T07:11:40;8.50;99.90
18805;DHT22;9530;48.930;9.526;2023-04-12T07:14:07;8.50;99.90
18805;DHT22;9530;48.930;9.526;2023-04-12T07:16:34;8.60;99.90
18805;DHT22;9530;48.930;9.526;2023-04-12T07:19:00;8.60;99.90
18805;DHT22;9530;48.930;9.526;2023-04-12T07:21:27;8.60;99.90
18805;DHT22;9530;48.930;9.526;2023-04-12T07:23:55;8.60;99.90
18805;DHT22;9530;48.930;9.526;2023-04-12T07:26:22;8.70;99.90
18805;DHT22;9530;48.930;9.526;2023-04-12T07:28:49;8.80;99.90
18805;DHT22;9530;48.930;9.526;2023-04-12T07:31:15;8.90;99.90
18805;DHT22;9530;48.930;9.526;2023-04-12T07:33:42;8.90;99.90
18805;DHT22;9530;48.930;9.526;2023-04-12T07:36:09;9.00;99.90
18805;DHT22;9530;48.930;9.526;2023-04-12T07:38:36;9.00;99.90
18805;DHT22;9530;48.930;9.526;2023-04-12T07:41:04;9.10;99.90
18805;DHT22;9530;48.930;9.526;2023-04-12T07:43:31;9.20;99.90
18805;DHT22;9530;48.930;9.526;2023-04-12T07:45:58;9.30;99.90
18805;DHT22;9530;48.930;9.526;2023-04-12T07:48:28;9.30;99.90
18805;DHT22;9530;48.930;9.526;2023-04-12T07:50:55;9.30;99.90
18805;DHT22;9530;48.930;9.526;2023-04-12T07:53:23;9.30;99.90
18805;DHT22;9530;48.930;9.526;2023-04-12T07:55:51;9.30;99.90
18805;DHT22;9530;48.930;9.526;2023-04-12T07:58:20;9.40;99.90
18805;DHT22;9530;48.930;9.526;2023-04-12T08:00:48;9.40;99.90
18805;DHT22;9530;48.930;9.526;2023-04-12T08:03:16;9.50;99.90
18805;DHT22;9530;48.930;9.526;2023-04-12T08:05:43;9.50;99.90
18805;DHT22;9530;48.930;9.526;2023-04-12T08:08:11;9.50;99.90
18805;DHT22;9530;48.930;9.526;2023-04-12T08:10:38;9.50;99.90
18805;DHT22;9530;48.930;9.526;2023-04-12T08:13:06;9.50;99.90
18805;DHT22;9530;48.930;9.526;2023-04-12T08:15:34;9.50;99.90
18805;DHT22;9530;48.930;9.526;2023-04-12T08:18:01;9.60;99.90
18805;DHT22;9530;48.930;9.526;2023-04-12T08:20:28;9.70;99.90
18805;DHT22;9530;48.930;9.526;2023-04-12T08:22:56;9.60;99.90
18805;DHT22;9530;48.930;9.526;2023-04-12T08:25:22;9.60;99.90
18805;DHT22;9530;48.930;9.526;2023-04-12T08:27:50;9.80;99.90
18805;DHT22;9530;48.930;9.526;2023-04-12T08:30:17;9.90;99.90
18805;DHT22;9530;48.930;9.526;2023-04-12T08:32:45;9.80;99.90
18805;DHT22;9530;48.930;9.526;2023-04-12T08:35:13;10.00;99.90
18805;DHT22;9530;48.930;9.526;2023-04-12T08:37:39;10.10;99.90
18805;DHT22;9530;48.930;9.526;2023-04-12T08:40:06;10.10;99.90
18805;DHT22;9530;48.930;9.526;2023-04-12T08:42:34;10.20;99.90
18805;DHT22;9530;48.930;9.526;2023-04-12T08:45:04;10.30;99.90
18805;DHT22;9530;48.930;9.526;2023-04-12T08:47:32;10.20;99.90
18805;DHT22;9530;48.930;9.526;2023-04-12T08:50:01;10.10;99.90
18805;DHT22;9530;48.930;9.526;2023-04-12T08:52:32;10.20;99.90
18805;DHT22;9530;48.930;9.526;2023-04-12T08:55:01;10.10;99.90
18805;DHT22;9530;48.930;9.526;2023-04-12T08:57:28;10.10;99.90
18805;DHT22;9530;48.930;9.526;2023-04-12T08:59:56;10.10;99.90
18805;DHT22;9530;48.930;9.526;2023-04-12T09:02:24;10.20;99.90
18805;DHT22;9530;48.930;9.526;2023-04-12T09:04:51;10.20;99.90
18805;DHT22;9530;48.930;9.526;2023-04-12T09:07:19;10.30;99.90
18805;DHT22;9530;48.930;9.526;2023-04-12T09:09:48;10.40;99.90
18805;DHT22;9530;48.930;9.526;2023-04-12T09:12:16;10.50;99.90
18805;DHT22;9530;48.930;9.526;2023-04-12T09:14:44;10.50;99.90
18805;DHT22;9530;48.930;9.526;2023-04-12T09:17:24;10.50;99.90
18805;DHT22;9530;48.930;9.526;2023-04-12T09:19:51;10.50;99.90
18805;DHT22;9530;48.930;9.526;2023-04-12T09:22:32;10.60;99.90
18805;DHT22;9530;48.930;9.526;2023-04-12T09:24:59;10.80;99.90
18805;DHT22;9530;48.930;9.526;2023-04-12T09:27:26;10.90;99.90
18805;DHT22;9530;48.930;9.526;2023-04-12T09:30:05;10.90;99.90
18805;DHT22;9530;48.930;9.526;2023-04-12T09:32:32;11.00;99.90
18805;DHT22;9530;48.930;9.526;2023-04-12T09:34:59;11.00;99.90
18805;DHT22;9530;48.930;9.526;2023-04-12T09:37:27;11.00;99.90
18805;DHT22;9530;48.930;9.526;2023-04-12T09:40:02;10.90;99.90
18805;DHT22;9530;48.930;9.526;2023-04-12T09:42:31;10.80;99.90
18805;DHT22;9530;48.930;9.526;2023-04-12T09:44:59;10.90;99.90
18805;DHT22;9530;48.930;9.526;2023-04-12T09:47:36;10.80;99.90
18805;DHT22;9530;48.930;9.526;2023-04-12T09:50:05;11.00;99.90
18805;DHT22;9530;48.930;9.526;2023-04-12T09:52:34;11.00;99.90
18805;DHT22;9530;48.930;9.526;2023-04-12T09:55:07;11.10;99.90
18805;DHT22;9530;48.930;9.526;2023-04-12T09:57:36;11.20;99.90
18805;DHT22;9530;48.930;9.526;2023-04-12T10:00:07;11.40;99.90
18805;DHT22;9530;48.930;9.526;2023-04-12T10:02:37;11.40;99.90
18805;DHT22;9530;48.930;9.526;2023-04-12T10:05:05;11.40;99.90
18805;DHT22;9530;48.930;9.526;2023-04-12T10:07:34;11.40;99.90
18805;DHT22;9530;48.930;9.526;2023-04-12T10:10:05;11.30;99.90
18805;DHT22;9530;48.930;9.526;2023-04-12T10:12:34;11.40;99.90
18805;DHT22;9530;48.930;9.526;2023-04-12T10:15:03;11.50;99.90
18805;DHT22;9530;48.930;9.526;2023-04-12T10:17:31;11.60;99.90
18805;DHT22;9530;48.930;9.526;2023-04-12T10:20:00;11.60;99.90
18805;DHT22;9530;48.930;9.526;2023-04-12T10:22:27;11.60;99.90
18805;DHT22;9530;48.930;9.526;2023-04-12T10:24:54;11.70;99.90
18805;DHT22;9530;48.930;9.526;2023-04-12T10:27:26;11.70;99.90
18805;DHT22;9530;48.930;9.526;2023-04-12T10:29:52;11.80;99.90
18805;DHT22;9530;48.930;9.526;2023-04-12T10:32:20;12.00;99.90
18805;DHT22;9530;48.930;9.526;2023-04-12T10:34:51;12.00;99.90
18805;DHT22;9530;48.930;9.526;2023-04-12T10:37:18;11.80;99.90
18805;DHT22;9530;48.930;9.526;2023-04-12T10:39:51;11.80;99.90
18805;DHT22;9530;48.930;9.526;2023-04-12T10:42:20;11.90;99.90
18805;DHT22;9530;48.930;9.526;2023-04-12T10:44:50;12.00;99.90
18805;DHT22;9530;48.930;9.526;2023-04-12T10:50:22;12.40;99.90
18805;DHT22;9530;48.930;9.526;2023-04-12T10:53:22;12.30;99.90
18805;DHT22;9530;48.930;9.526;2023-04-12T10:55:52;12.20;99.90
18805;DHT22;9530;48.930;9.526;2023-04-12T10:58:53;12.40;99.90
18805;DHT22;9530;48.930;9.526;2023-04-12T11:01:21;12.30;99.90
18805;DHT22;9530;48.930;9.526;2023-04-12T11:04:07;12.20;99.90
18805;DHT22;9530;48.930;9.526;2023-04-12T11:06:42;12.30;99.90
18805;DHT22;9530;48.930;9.526;2023-04-12T11:09:22;12.40;99.90
18805;DHT22;9530;48.930;9.526;2023-04-12T11:11:50;12.60;99.90
18805;DHT22;9530;48.930;9.526;2023-04-12T11:14:17;12.80;99.90
18805;DHT22;9530;48.930;9.526;2023-04-12T11:17:25;13.00;99.90
18805;DHT22;9530;48.930;9.526;2023-04-12T11:19:57;13.10;99.90
18805;DHT22;9530;48.930;9.526;2023-04-12T11:22:26;13.10;99.90
18805;DHT22;9530;48.930;9.526;2023-04-12T11:24:55;13.30;99.90
18805;DHT22;9530;48.930;9.526;2023-04-12T11:27:23;13.50;99.90
18805;DHT22;9530;48.930;9.526;2023-04-12T11:29:51;13.50;99.90
18805;DHT22;9530;48.930;9.526;2023-04-12T11:32:20;13.50;99.90
18805;DHT22;9530;48.930;9.526;2023-04-12T11:34:49;13.60;99.90
18805;DHT22;9530;48.930;9.526;2023-04-12T11:37:17;13.60;99.90
18805;DHT22;9530;48.930;9.526;2023-04-12T11:39:45;13.50;99.90
18805;DHT22;9530;48.930;9.526;2023-04-12T11:42:13;13.40;99.90
18805;DHT22;9530;48.930;9.526;2023-04-12T11:44:42;13.50;99.90
18805;DHT22;9530;48.930;9.526;2023-04-12T11:47:12;13.60;99.90
18805;DHT22;9530;48.930;9.526;2023-04-12T11:49:43;13.30;99.90
18805;DHT22;9530;48.930;9.526;2023-04-12T11:52:11;13.50;99.90
18805;DHT22;9530;48.930;9.526;2023-04-12T11:54:41;13.40;99.90
18805;DHT22;9530;48.930;9.526;2023-04-12T11:57:11;13.50;99.90
18805;DHT22;9530;48.930;9.526;2023-04-12T11:59:38;13.60;99.90
18805;DHT22;9530;48.930;9.526;2023-04-12T12:02:06;13.50;99.90
18805;DHT22;9530;48.930;9.526;2023-04-12T12:04:34;13.50;99.90
18805;DHT22;9530;48.930;9.526;2023-04-12T12:07:01;13.60;99.90
18805;DHT22;9530;48.930;9.526;2023-04-12T12:09:30;13.60;99.90
18805;DHT22;9530;48.930;9.526;2023-04-12T12:11:57;13.50;99.90
18805;DHT22;9530;48.930;9.526;2023-04-12T12:14:24;13.60;99.90
18805;DHT22;9530;48.930;9.526;2023-04-12T12:16:53;13.70;99.90
18805;DHT22;9530;48.930;9.526;2023-04-12T12:19:29;13.80;99.90
18805;DHT22;9530;48.930;9.526;2023-04-12T12:22:08;13.90;99.90
18805;DHT22;9530;48.930;9.526;2023-04-12T12:24:37;13.80;99.90
18805;DHT22;9530;48.930;9.526;2023-04-12T12:27:03;14.00;99.90
18805;DHT22;9530;48.930;9.526;2023-04-12T12:29:34;14.10;99.90
18805;DHT22;9530;48.930;9.526;2023-04-12T12:32:02;14.40;99.90
18805;DHT22;9530;48.930;9.526;2023-04-12T12:34:31;14.40;99.90
18805;DHT22;9530;48.930;9.526;2023-04-12T12:36:59;14.60;99.90
18805;DHT22;9530;48.930;9.526;2023-04-12T12:39:26;14.60;99.90
18805;DHT22;9530;48.930;9.526;2023-04-12T12:41:54;14.80;99.90
18805;DHT22;9530;48.930;9.526;2023-04-12T12:44:21;15.00;99.90
18805;DHT22;9530;48.930;9.526;2023-04-12T12:46:48;15.10;99.90
18805;DHT22;9530;48.930;9.526;2023-04-12T12:49:15;15.00;99.90
18805;DHT22;9530;48.930;9.526;2023-04-12T12:51:41;15.00;99.90
18805;DHT22;9530;48.930;9.526;2023-04-12T12:54:08;14.80;99.90
18805;DHT22;9530;48.930;9.526;2023-04-12T12:56:35;14.50;99.90
18805;DHT22;9530;48.930;9.526;2023-04-12T12:59:03;14.40;99.90
18805;DHT22;9530;48.930;9.526;2023-04-12T13:01:30;14.40;99.90
18805;DHT22;9530;48.930;9.526;2023-04-12T13:03:56;14.40;99.90
18805;DHT22;9530;48.930;9.526;2023-04-12T13:06:23;14.50;99.90
18805;DHT22;9530;48.930;9.526;2023-04-12T13:08:52;14.60;99.90
18805;DHT22;9530;48.930;9.526;2023-04-12T13:11:20;14.60;99.90
18805;DHT22;9530;48.930;9.526;2023-04-12T13:13:46;14.70;99.90
18805;DHT22;9530;48.930;9.526;2023-04-12T13:16:15;14.80;99.90
18805;DHT22;9530;48.930;9.526;2023-04-12T13:18:42;14.90;99.90
18805;DHT22;9530;48.930;9.526;2023-04-12T13:21:08;15.00;99.90
18805;DHT22;9530;48.930;9.526;2023-04-12T13:23:35;14.90;99.90
18805;DHT22;9530;48.930;9.526;2023-04-12T13:26:02;14.80;99.90
18805;DHT22;9530;48.930;9.526;2023-04-12T13:28:29;14.70;99.90
18805;DHT22;9530;48.930;9.526;2023-04-12T13:30:55;14.70;99.90
18805;DHT22;9530;48.930;9.526;2023-04-12T13:33:23;14.80;99.90
18805;DHT22;9530;48.930;9.526;2023-04-12T13:35:50;15.10;99.90
18805;DHT22;9530;48.930;9.526;2023-04-12T13:38:17;15.40;99.90
18805;DHT22;9530;48.930;9.526;2023-04-12T13:40:44;15.60;99.90
18805;DHT22;9530;48.930;9.526;2023-04-12T13:43:11;15.60;99.90
18805;DHT22;9530;48.930;9.526;2023-04-12T13:45:37;15.50;99.90
18805;DHT22;9530;48.930;9.526;2023-04-12T13:48:04;15.40;99.90
18805;DHT22;9530;48.930;9.526;2023-04-12T13:50:32;15.30;99.90
18805;DHT22;9530;48.930;9.526;2023-04-12T13:52:59;15.20;99.90
18805;DHT22;9530;48.930;9.526;2023-04-12T13:55:25;15.00;99.90
18805;DHT22;9530;48.930;9.526;2023-04-12T13:57:52;14.80;99.90
18805;DHT22;9530;48.930;9.526;2023-04-12T14:00:20;14.60;99.90
18805;DHT22;9530;48.930;9.526;2023-04-12T14:02:46;15.00;99.90
18805;DHT22;9530;48.930;9.526;2023-04-12T14:05:13;15.40;99.90
18805;DHT22;9530;48.930;9.526;2023-04-12T14:07:41;15.50;99.90
18805;DHT22;9530;48.930;9.526;2023-04-12T14:10:09;15.70;99.90
18805;DHT22;9530;48.930;9.526;2023-04-12T14:12:35;15.90;99.90
18805;DHT22;9530;48.930;9.526;2023-04-12T14:15:03;15.90;99.90
18805;DHT22;9530;48.930;9.526;2023-04-12T14:17:30;15.70;99.90
18805;DHT22;9530;48.930;9.526;2023-04-12T14:19:57;15.40;99.90
18805;DHT22;9530;48.930;9.526;2023-04-12T14:22:24;15.30;99.90
18805;DHT22;9530;48.930;9.526;2023-04-12T14:24:52;15.20;99.90
18805;DHT22;9530;48.930;9.526;2023-04-12T14:27:19;14.90;99.90
18805;DHT22;9530;48.930;9.526;2023-04-12T14:29:46;14.70;99.90
18805;DHT22;9530;48.930;9.526;2023-04-12T14:32:13;14.70;99.90
18805;DHT22;9530;48.930;9.526;2023-04-12T14:34:40;14.60;99.90
18805;DHT22;9530;48.930;9.526;2023-04-12T14:37:08;14.70;99.90
18805;DHT22;9530;48.930;9.526;2023-04-12T14:39:35;14.90;99.90
18805;DHT22;9530;48.930;9.526;2023-04-12T14:42:04;15.20;99.90
18805;DHT22;9530;48.930;9.526;2023-04-12T14:44:31;15.90;99.90
18805;DHT22;9530;48.930;9.526;2023-04-12T14:46:58;16.30;99.90
18805;DHT22;9530;48.930;9.526;2023-04-12T14:49:25;16.60;99.90
18805;DHT22;9530;48.930;9.526;2023-04-12T14:51:51;16.80;99.90
18805;DHT22;9530;48.930;9.526;2023-04-12T14:54:19;17.20;99.90
18805;DHT22;9530;48.930;9.526;2023-04-12T14:56:46;17.30;99.90
18805;DHT22;9530;48.930;9.526;2023-04-12T14:59:14;17.00;99.90
18805;DHT22;9530;48.930;9.526;2023-04-12T15:01:41;16.70;99.90
18805;DHT22;9530;48.930;9.526;2023-04-12T15:04:08;16.60;99.90
18805;DHT22;9530;48.930;9.526;2023-04-12T15:06:34;16.50;99.90
18805;DHT22;9530;48.930;9.526;2023-04-12T15:09:07;16.50;99.90
18805;DHT22;9530;48.930;9.526;2023-04-12T15:11:34;16.30;99.90
18805;DHT22;9530;48.930;9.526;2023-04-12T15:14:01;16.20;99.90
18805;DHT22;9530;48.930;9.526;2023-04-12T15:16:30;16.10;99.90
18805;DHT22;9530;48.930;9.526;2023-04-12T15:18:56;15.80;99.90
18805;DHT22;9530;48.930;9.526;2023-04-12T15:21:23;15.60;99.90
18805;DHT22;9530;48.930;9.526;2023-04-12T15:23:50;15.50;99.90
18805;DHT22;9530;48.930;9.526;2023-04-12T15:26:17;15.20;99.90
18805;DHT22;9530;48.930;9.526;2023-04-12T15:28:43;15.10;99.90
18805;DHT22;9530;48.930;9.526;2023-04-12T15:31:10;15.00;99.90
18805;DHT22;9530;48.930;9.526;2023-04-12T15:33:39;14.90;99.90
18805;DHT22;9530;48.930;9.526;2023-04-12T15:36:06;14.70;99.90
18805;DHT22;9530;48.930;9.526;2023-04-12T15:38:39;14.70;99.90
18805;DHT22;9530;48.930;9.526;2023-04-12T15:41:06;13.80;99.90
18805;DHT22;9530;48.930;9.526;2023-04-12T15:43:33;12.80;99.90
18805;DHT22;9530;48.930;9.526;2023-04-12T15:46:00;11.90;99.90
18805;DHT22;9530;48.930;9.526;2023-04-12T15:48:27;11.30;99.90
18805;DHT22;9530;48.930;9.526;2023-04-12T15:50:55;10.90;99.90
18805;DHT22;9530;48.930;9.526;2023-04-12T15:53:23;10.70;99.90
18805;DHT22;9530;48.930;9.526;2023-04-12T15:55:50;10.50;99.90
18805;DHT22;9530;48.930;9.526;2023-04-12T15:58:19;10.40;99.90
18805;DHT22;9530;48.930;9.526;2023-04-12T16:00:46;10.30;99.90
18805;DHT22;9530;48.930;9.526;2023-04-12T16:03:12;10.30;99.90
18805;DHT22;9530;48.930;9.526;2023-04-12T16:05:42;10.30;99.90